createdAt,value
2023-02-12T00:00:05.528Z,0.00
2023-02-12T00:01:05.485Z,0.00
2023-02-12T00:03:12.604Z,0.00
2023-02-12T00:04:13.150Z,0.00
2023-02-12T00:06:19.386Z,0.00
2023-02-12T00:07:19.356Z,0.00
2023-02-12T00:09:14.166Z,0.00
2023-02-12T00:10:13.693Z,0.00
2023-02-12T00:11:13.712Z,0.00
2023-02-12T00:12:13.659Z,0.00
2023-02-12T00:13:13.657Z,0.00
2023-02-12T00:14:13.683Z,0.00
2023-02-12T00:15:13.624Z,0.00
2023-02-12T00:16:13.650Z,0.00
2023-02-12T00:17:13.577Z,0.00
2023-02-12T00:22:42.009Z,0.00
2023-02-12T00:23:41.396Z,0.00
2023-02-12T00:24:41.389Z,0.00
2023-02-12T00:25:41.385Z,0.00
2023-02-12T00:26:41.365Z,0.00
2023-02-12T00:27:41.547Z,0.00
2023-02-12T00:28:41.414Z,0.00
2023-02-12T00:29:41.304Z,0.00
2023-02-12T00:30:41.364Z,0.00
2023-02-12T00:31:41.254Z,0.00
2023-02-12T00:32:41.225Z,0.00
2023-02-12T00:33:41.209Z,0.00
2023-02-12T00:34:41.271Z,0.00
2023-02-12T00:35:41.173Z,0.00
2023-02-12T00:36:41.163Z,0.00
2023-02-12T00:37:41.143Z,0.00
2023-02-12T00:38:41.126Z,0.00
2023-02-12T00:39:41.110Z,0.00
2023-02-12T00:40:41.088Z,0.00
2023-02-12T00:41:41.072Z,0.00
2023-02-12T00:42:41.070Z,0.00
2023-02-12T00:43:41.060Z,0.00
2023-02-12T00:44:41.017Z,0.00
2023-02-12T00:45:41.000Z,0.00
2023-02-12T00:46:41.009Z,0.00
2023-02-12T00:47:40.974Z,0.00
2023-02-12T00:48:40.950Z,0.00
2023-02-12T00:49:40.932Z,0.00
2023-02-12T00:50:40.916Z,0.00
2023-02-12T00:51:40.898Z,0.00
2023-02-12T00:52:40.880Z,0.00
2023-02-12T01:19:50.082Z,0.00
2023-02-12T01:20:50.303Z,0.00
2023-02-12T01:45:49.477Z,0.00
2023-02-12T01:46:49.452Z,0.00
2023-02-12T01:47:49.926Z,0.00
2023-02-12T01:48:49.628Z,0.00
2023-02-12T01:49:49.207Z,0.00
2023-02-12T01:50:48.953Z,0.00
2023-02-12T01:51:49.830Z,0.00
2023-02-12T01:52:49.242Z,0.00
2023-02-12T01:53:48.823Z,0.00
2023-02-12T01:54:48.800Z,0.00
2023-02-12T01:55:48.802Z,0.00
2023-02-12T01:56:48.781Z,0.00
2023-02-12T01:57:48.758Z,0.00
2023-02-12T01:58:48.730Z,0.00
2023-02-12T01:59:48.718Z,0.00
2023-02-12T02:00:48.697Z,0.00
2023-02-12T02:01:48.785Z,0.00
2023-02-12T02:02:48.694Z,0.00
2023-02-12T02:03:48.646Z,0.00
2023-02-12T02:04:48.630Z,0.00
2023-02-12T02:05:48.609Z,0.00
2023-02-12T02:06:48.599Z,0.00
2023-02-12T02:07:48.574Z,0.00
2023-02-12T02:08:48.557Z,0.00
2023-02-12T02:09:49.241Z,0.00
2023-02-12T02:10:48.522Z,0.00
2023-02-12T02:11:48.501Z,0.00
2023-02-12T02:12:48.502Z,0.00
2023-02-12T02:13:48.491Z,0.00
2023-02-12T02:14:48.447Z,0.00
2023-02-12T02:15:48.463Z,0.00
2023-02-12T02:16:48.421Z,0.00
2023-02-12T02:17:48.398Z,0.00
2023-02-12T02:18:48.375Z,0.00
2023-02-12T02:19:48.363Z,0.00
2023-02-12T02:20:48.342Z,0.00
2023-02-12T02:21:48.325Z,0.00
2023-02-12T02:22:48.306Z,0.00
2023-02-12T02:23:48.289Z,0.00
2023-02-12T02:24:48.266Z,0.00
2023-02-12T02:25:48.249Z,0.00
2023-02-12T02:26:48.238Z,0.00
2023-02-12T02:27:48.216Z,0.00
2023-02-12T02:28:48.197Z,0.00
2023-02-12T02:29:48.181Z,0.00
2023-02-12T02:30:48.198Z,0.00
2023-02-12T02:31:48.232Z,0.00
2023-02-12T02:32:48.128Z,0.00
2023-02-12T02:33:48.126Z,0.00
2023-02-12T02:34:48.091Z,0.00
2023-02-12T02:35:48.073Z,0.00
2023-02-12T02:37:00.136Z,0.00
2023-02-12T02:37:48.043Z,0.00
2023-02-12T02:38:48.021Z,0.00
2023-02-12T02:39:48.009Z,0.00
2023-02-12T02:40:47.986Z,0.00
2023-02-12T02:41:47.972Z,0.00
2023-02-12T02:42:47.952Z,0.00
2023-02-12T02:43:47.937Z,0.00
2023-02-12T02:44:47.913Z,0.00
2023-02-12T02:45:47.899Z,0.00
2023-02-12T02:46:47.932Z,0.00
2023-02-12T02:47:47.865Z,0.00
2023-02-12T02:48:47.852Z,0.00
2023-02-12T02:49:47.838Z,0.00
2023-02-12T02:50:47.815Z,0.00
2023-02-12T02:51:47.794Z,0.00
2023-02-12T02:52:47.779Z,0.00
2023-02-12T02:53:47.767Z,0.00
2023-02-12T02:54:47.741Z,0.00
2023-02-12T02:55:47.725Z,0.00
2023-02-12T02:56:47.705Z,0.00
2023-02-12T02:57:47.689Z,0.00
2023-02-12T02:58:47.672Z,0.00
2023-02-12T02:59:47.653Z,0.00
2023-02-12T03:00:47.651Z,0.00
2023-02-12T03:01:47.676Z,0.00
2023-02-12T03:02:47.643Z,0.00
2023-02-12T03:03:47.591Z,0.00
2023-02-12T03:04:47.568Z,0.00
2023-02-12T03:05:47.554Z,0.00
2023-02-12T03:06:47.546Z,0.00
2023-02-12T03:07:47.515Z,0.00
2023-02-12T03:08:47.497Z,0.00
2023-02-12T03:09:47.529Z,0.00
2023-02-12T03:10:47.464Z,0.00
2023-02-12T03:11:47.464Z,0.00
2023-02-12T03:12:47.429Z,0.00
2023-02-12T03:13:47.414Z,0.00
2023-02-12T03:14:47.396Z,0.00
2023-02-12T03:15:47.378Z,0.00
2023-02-12T03:16:47.400Z,0.00
2023-02-12T03:17:47.340Z,0.00
2023-02-12T03:18:47.333Z,0.00
2023-02-12T03:19:47.303Z,0.00
2023-02-12T03:20:47.294Z,0.00
2023-02-12T03:21:47.277Z,0.00
2023-02-12T03:22:47.276Z,0.00
2023-02-12T03:23:47.246Z,0.00
2023-02-12T03:24:47.218Z,0.00
2023-02-12T03:25:47.202Z,0.00
2023-02-12T03:26:47.185Z,0.00
2023-02-12T03:27:47.188Z,0.00
2023-02-12T03:28:47.153Z,0.00
2023-02-12T03:29:47.140Z,0.00
2023-02-12T03:30:47.158Z,0.00
2023-02-12T03:31:47.143Z,0.00
2023-02-12T03:32:47.079Z,0.00
2023-02-12T03:33:47.069Z,0.00
2023-02-12T03:34:47.065Z,0.00
2023-02-12T03:35:47.026Z,0.00
2023-02-12T03:36:47.012Z,0.00
2023-02-12T03:37:47.002Z,0.00
2023-02-12T03:38:46.998Z,0.00
2023-02-12T03:39:46.954Z,0.00
2023-02-12T03:40:46.935Z,0.00
2023-02-12T03:41:46.933Z,0.00
2023-02-12T03:42:46.902Z,0.00
2023-02-12T03:43:46.885Z,0.00
2023-02-12T03:44:46.865Z,0.00
2023-02-12T03:45:46.867Z,0.00
2023-02-12T03:46:46.831Z,0.00
2023-02-12T03:47:46.815Z,0.00
2023-02-12T03:48:46.799Z,0.00
2023-02-12T03:49:46.780Z,0.00
2023-02-12T03:50:46.764Z,0.00
2023-02-12T03:51:46.742Z,0.00
2023-02-12T03:52:46.730Z,0.00
2023-02-12T03:53:46.715Z,0.00
2023-02-12T03:54:46.691Z,0.00
2023-02-12T03:55:46.668Z,0.00
2023-02-12T03:56:46.652Z,0.00
2023-02-12T03:57:46.638Z,0.00
2023-02-12T03:58:46.616Z,0.00
2023-02-12T03:59:46.593Z,0.00
2023-02-12T04:00:46.600Z,0.00
2023-02-12T04:01:46.646Z,0.00
2023-02-12T04:02:46.558Z,0.00
2023-02-12T04:03:46.525Z,0.00
2023-02-12T04:04:46.508Z,0.00
2023-02-12T04:05:46.488Z,0.00
2023-02-12T04:06:46.477Z,0.00
2023-02-12T04:07:46.450Z,0.00
2023-02-12T04:08:46.441Z,0.00
2023-02-12T04:09:46.422Z,0.00
2023-02-12T04:10:46.408Z,0.00
2023-02-12T04:11:46.385Z,0.00
2023-02-12T04:12:46.374Z,0.00
2023-02-12T04:13:46.349Z,0.00
2023-02-12T04:14:46.329Z,0.00
2023-02-12T04:15:46.305Z,0.00
2023-02-12T04:16:46.333Z,0.00
2023-02-12T04:17:46.273Z,0.00
2023-02-12T04:18:46.260Z,0.00
2023-02-12T04:19:46.236Z,0.00
2023-02-12T04:20:46.228Z,0.00
2023-02-12T04:21:46.203Z,0.00
2023-02-12T04:22:46.187Z,0.00
2023-02-12T04:23:46.168Z,0.00
2023-02-12T04:24:46.161Z,0.00
2023-02-12T04:25:46.150Z,0.00
2023-02-12T04:26:46.121Z,0.00
2023-02-12T04:27:46.100Z,0.00
2023-02-12T04:28:46.080Z,0.00
2023-02-12T04:29:46.060Z,0.00
2023-02-12T04:30:46.108Z,0.00
2023-02-12T04:31:46.179Z,0.00
2023-02-12T04:32:46.012Z,0.00
2023-02-12T04:33:45.998Z,0.00
2023-02-12T04:34:45.976Z,0.00
2023-02-12T04:35:45.973Z,0.00
2023-02-12T04:36:45.949Z,0.00
2023-02-12T04:37:45.925Z,0.00
2023-02-12T04:38:45.908Z,0.00
2023-02-12T04:39:45.913Z,0.00
2023-02-12T04:40:45.885Z,0.00
2023-02-12T04:41:45.861Z,0.00
2023-02-12T04:42:45.839Z,0.00
2023-02-12T04:43:45.818Z,0.00
2023-02-12T04:44:45.802Z,0.00
2023-02-12T04:45:45.842Z,0.00
2023-02-12T04:46:45.769Z,0.00
2023-02-12T04:47:45.750Z,0.00
2023-02-12T04:48:45.733Z,0.00
2023-02-12T04:49:45.716Z,0.00
2023-02-12T04:50:45.696Z,0.00
2023-02-12T04:51:45.680Z,0.00
2023-02-12T04:52:45.663Z,0.00
2023-02-12T04:53:45.649Z,0.00
2023-02-12T04:54:45.650Z,0.00
2023-02-12T04:55:45.608Z,0.00
2023-02-12T04:56:45.592Z,0.00
2023-02-12T04:57:45.603Z,0.00
2023-02-12T04:58:45.571Z,0.00
2023-02-12T04:59:45.547Z,0.00
2023-02-12T05:00:45.523Z,0.00
2023-02-12T05:01:45.647Z,0.00
2023-02-12T05:02:45.493Z,0.00
2023-02-12T05:03:45.465Z,0.00
2023-02-12T05:04:45.499Z,0.00
2023-02-12T05:05:45.436Z,0.00
2023-02-12T05:06:45.445Z,0.00
2023-02-12T05:07:45.393Z,0.00
2023-02-12T05:08:45.391Z,0.00
2023-02-12T05:09:45.360Z,0.00
2023-02-12T05:10:45.351Z,0.00
2023-02-12T05:11:45.337Z,0.00
2023-02-12T05:12:45.320Z,0.00
2023-02-12T05:13:45.298Z,0.00
2023-02-12T05:14:45.273Z,0.00
2023-02-12T05:15:45.360Z,0.00
2023-02-12T05:16:45.241Z,0.00
2023-02-12T05:17:45.230Z,0.00
2023-02-12T05:18:45.206Z,0.00
2023-02-12T05:19:45.182Z,0.00
2023-02-12T05:20:45.170Z,0.00
2023-02-12T05:21:45.156Z,0.00
2023-02-12T05:22:45.154Z,0.00
2023-02-12T05:23:45.115Z,0.00
2023-02-12T05:24:45.095Z,0.00
2023-02-12T05:25:45.076Z,0.00
2023-02-12T05:26:45.060Z,0.00
2023-02-12T05:27:45.106Z,0.00
2023-02-12T05:28:45.025Z,0.00
2023-02-12T05:29:45.015Z,0.00
2023-02-12T05:30:45.157Z,0.00
2023-02-12T05:31:45.150Z,0.00
2023-02-12T05:32:44.960Z,0.00
2023-02-12T05:33:44.936Z,0.00
2023-02-12T05:34:44.923Z,0.00
2023-02-12T05:35:44.897Z,0.00
2023-02-12T05:36:44.889Z,0.00
2023-02-12T05:37:44.861Z,0.00
2023-02-12T05:38:44.847Z,0.00
2023-02-12T05:39:44.830Z,0.00
2023-02-12T05:40:44.815Z,0.00
2023-02-12T05:41:44.790Z,0.00
2023-02-12T05:42:44.785Z,0.00
2023-02-12T05:43:46.541Z,0.00
2023-02-12T05:44:44.736Z,0.00
2023-02-12T05:45:44.803Z,0.00
2023-02-12T05:46:44.741Z,0.00
2023-02-12T05:47:44.695Z,0.00
2023-02-12T05:48:44.665Z,0.00
2023-02-12T05:49:44.648Z,0.00
2023-02-12T05:50:44.630Z,0.00
2023-02-12T05:51:44.619Z,0.00
2023-02-12T05:52:44.600Z,0.00
2023-02-12T05:53:44.583Z,0.00
2023-02-12T05:54:44.571Z,0.00
2023-02-12T05:55:44.540Z,0.00
2023-02-12T05:56:44.524Z,0.00
2023-02-12T05:57:44.504Z,0.00
2023-02-12T05:58:44.491Z,0.00
2023-02-12T05:59:44.469Z,0.00
2023-02-12T06:00:44.463Z,0.00
2023-02-12T06:01:44.444Z,0.00
2023-02-12T06:02:44.467Z,0.00
2023-02-12T06:03:44.462Z,0.00
2023-02-12T06:04:46.393Z,0.00
2023-02-12T06:05:44.363Z,0.00
2023-02-12T06:06:44.347Z,0.00
2023-02-12T06:07:44.348Z,0.00
2023-02-12T06:08:44.351Z,0.00
2023-02-12T06:09:44.308Z,0.00
2023-02-12T06:10:44.278Z,0.00
2023-02-12T06:11:44.258Z,0.00
2023-02-12T06:12:44.273Z,0.00
2023-02-12T06:13:44.233Z,0.00
2023-02-12T06:14:44.220Z,0.00
2023-02-12T06:15:44.237Z,0.00
2023-02-12T06:16:44.211Z,0.00
2023-02-12T06:17:44.164Z,0.00
2023-02-12T06:18:44.133Z,0.00
2023-02-12T06:19:44.112Z,0.00
2023-02-12T06:20:44.099Z,0.00
2023-02-12T06:21:44.087Z,0.00
2023-02-12T06:22:44.061Z,0.00
2023-02-12T06:23:44.044Z,0.00
2023-02-12T06:24:44.023Z,0.00
2023-02-12T06:25:44.011Z,0.00
2023-02-12T06:26:43.995Z,0.00
2023-02-12T06:27:43.972Z,0.00
2023-02-12T06:28:43.963Z,0.00
2023-02-12T06:29:43.934Z,0.00
2023-02-12T06:30:43.980Z,0.00
2023-02-12T06:31:44.120Z,0.00
2023-02-12T06:32:43.888Z,0.00
2023-02-12T06:33:43.874Z,0.00
2023-02-12T06:34:43.858Z,0.00
2023-02-12T06:35:43.835Z,0.00
2023-02-12T06:36:43.812Z,0.00
2023-02-12T06:37:43.797Z,0.00
2023-02-12T06:38:43.782Z,0.00
2023-02-12T06:39:43.772Z,0.00
2023-02-12T06:40:43.746Z,0.00
2023-02-12T06:41:43.751Z,0.00
2023-02-12T06:42:43.711Z,0.00
2023-02-12T06:43:43.695Z,0.00
2023-02-12T06:44:43.677Z,0.00
2023-02-12T06:45:43.653Z,0.00
2023-02-12T06:46:43.746Z,0.00
2023-02-12T06:47:43.615Z,0.00
2023-02-12T06:48:43.602Z,0.00
2023-02-12T06:49:43.588Z,0.00
2023-02-12T06:50:43.563Z,0.00
2023-02-12T06:51:43.544Z,0.00
2023-02-12T06:52:43.527Z,0.00
2023-02-12T06:53:43.528Z,0.00
2023-02-12T06:54:43.497Z,0.00
2023-02-12T06:55:43.477Z,0.00
2023-02-12T06:56:43.506Z,0.00
2023-02-12T06:57:43.476Z,5.63
2023-02-12T06:58:43.435Z,5.63
2023-02-12T06:59:43.407Z,5.63
2023-02-12T07:00:43.422Z,5.63
2023-02-12T07:01:43.370Z,5.63
2023-02-12T07:02:43.361Z,5.63
2023-02-12T07:03:43.362Z,5.63
2023-02-12T07:04:43.322Z,5.63
2023-02-12T07:05:43.301Z,5.63
2023-02-12T07:06:43.289Z,5.63
2023-02-12T07:07:43.264Z,5.63
2023-02-12T07:08:43.249Z,5.63
2023-02-12T07:09:43.226Z,5.63
2023-02-12T07:10:43.208Z,5.63
2023-02-12T07:11:43.192Z,5.63
2023-02-12T07:12:43.176Z,5.63
2023-02-12T07:13:43.163Z,5.63
2023-02-12T07:14:43.140Z,5.63
2023-02-12T07:15:43.140Z,5.63
2023-02-12T07:16:43.239Z,5.63
2023-02-12T07:17:43.083Z,5.63
2023-02-12T07:18:43.079Z,5.63
2023-02-12T07:19:43.062Z,11.25
2023-02-12T07:20:43.045Z,11.25
2023-02-12T07:21:43.031Z,11.25
2023-02-12T07:22:42.996Z,11.25
2023-02-12T07:23:42.978Z,11.25
2023-02-12T07:24:42.968Z,11.25
2023-02-12T07:25:42.947Z,11.25
2023-02-12T07:26:42.968Z,11.25
2023-02-12T07:27:42.922Z,11.25
2023-02-12T07:28:42.894Z,11.25
2023-02-12T07:29:42.878Z,11.25
2023-02-12T07:30:42.896Z,11.25
2023-02-12T07:31:42.899Z,11.25
2023-02-12T07:32:42.836Z,11.25
2023-02-12T07:33:42.805Z,11.25
2023-02-12T07:34:42.789Z,11.25
2023-02-12T07:35:42.854Z,11.25
2023-02-12T07:36:42.761Z,11.25
2023-02-12T07:37:42.741Z,11.25
2023-02-12T07:38:42.721Z,11.25
2023-02-12T07:39:42.702Z,11.25
2023-02-12T07:40:42.683Z,11.25
2023-02-12T07:41:42.673Z,11.25
2023-02-12T07:42:42.649Z,11.25
2023-02-12T07:43:42.639Z,16.88
2023-02-12T07:44:42.614Z,16.88
2023-02-12T07:45:42.635Z,16.88
2023-02-12T07:46:42.586Z,16.88
2023-02-12T07:47:42.580Z,16.88
2023-02-12T07:48:42.594Z,16.88
2023-02-12T07:49:42.528Z,16.88
2023-02-12T07:50:42.526Z,16.88
2023-02-12T07:51:42.495Z,16.88
2023-02-12T07:52:42.640Z,16.88
2023-02-12T07:53:42.467Z,16.88
2023-02-12T07:54:42.442Z,22.50
2023-02-12T07:55:42.421Z,22.50
2023-02-12T07:56:42.408Z,22.50
2023-02-12T07:57:42.389Z,22.50
2023-02-12T07:58:42.373Z,22.50
2023-02-12T07:59:42.383Z,22.50
2023-02-12T08:00:42.342Z,22.50
2023-02-12T08:01:42.320Z,22.50
2023-02-12T08:02:42.383Z,22.50
2023-02-12T08:03:42.288Z,22.50
2023-02-12T08:04:42.345Z,22.50
2023-02-12T08:05:42.277Z,28.13
2023-02-12T08:06:42.238Z,28.13
2023-02-12T08:07:42.216Z,28.13
2023-02-12T08:08:42.228Z,22.50
2023-02-12T08:09:42.191Z,22.50
2023-02-12T08:10:42.172Z,22.50
2023-02-12T08:11:42.159Z,22.50
2023-02-12T08:12:42.141Z,22.50
2023-02-12T08:13:42.118Z,22.50
2023-02-12T08:14:42.125Z,22.50
2023-02-12T08:15:42.211Z,22.50
2023-02-12T08:16:42.203Z,22.50
2023-02-12T08:17:42.053Z,22.50
2023-02-12T08:18:42.037Z,22.50
2023-02-12T08:19:42.015Z,22.50
2023-02-12T08:20:42.000Z,22.50
2023-02-12T08:21:41.986Z,22.50
2023-02-12T08:22:41.963Z,22.50
2023-02-12T08:23:41.952Z,22.50
2023-02-12T08:24:41.936Z,22.50
2023-02-12T08:25:41.922Z,22.50
2023-02-12T08:26:41.900Z,22.50
2023-02-12T08:27:41.889Z,22.50
2023-02-12T08:28:41.864Z,22.50
2023-02-12T08:29:41.856Z,22.50
2023-02-12T08:30:41.855Z,22.50
2023-02-12T08:31:41.874Z,22.50
2023-02-12T08:32:41.799Z,22.50
2023-02-12T08:33:41.784Z,22.50
2023-02-12T08:34:41.774Z,22.50
2023-02-12T08:35:41.748Z,22.50
2023-02-12T08:36:41.731Z,22.50
2023-02-12T08:37:41.717Z,22.50
2023-02-12T08:38:41.694Z,22.50
2023-02-12T08:39:41.676Z,22.50
2023-02-12T08:40:41.679Z,22.50
2023-02-12T08:41:41.655Z,22.50
2023-02-12T08:42:41.627Z,22.50
2023-02-12T08:43:41.613Z,28.13
2023-02-12T08:44:41.605Z,28.13
2023-02-12T08:45:41.648Z,33.75
2023-02-12T08:46:41.579Z,33.75
2023-02-12T08:47:41.550Z,39.38
2023-02-12T08:48:41.523Z,39.38
2023-02-12T08:49:41.513Z,45.00
2023-02-12T08:50:41.488Z,45.00
2023-02-12T08:51:41.484Z,45.00
2023-02-12T08:52:43.707Z,50.63
2023-02-12T08:53:41.451Z,50.63
2023-02-12T08:54:41.435Z,56.25
2023-02-12T08:55:41.415Z,56.25
2023-02-12T08:56:41.396Z,61.88
2023-02-12T08:57:41.383Z,61.88
2023-02-12T08:58:41.362Z,73.13
2023-02-12T08:59:41.341Z,78.75
2023-02-12T09:00:41.341Z,90.00
2023-02-12T09:01:41.343Z,101.25
2023-02-12T09:02:41.334Z,112.50
2023-02-12T09:03:41.279Z,118.13
2023-02-12T09:04:41.272Z,123.75
2023-02-12T09:05:41.242Z,129.38
2023-02-12T09:06:41.272Z,129.38
2023-02-12T09:07:41.227Z,129.38
2023-02-12T09:08:41.192Z,129.38
2023-02-12T09:09:41.179Z,123.75
2023-02-12T09:10:41.167Z,118.13
2023-02-12T09:11:41.154Z,118.13
2023-02-12T09:12:41.132Z,112.50
2023-02-12T09:13:41.123Z,101.25
2023-02-12T09:14:41.109Z,90.00
2023-02-12T09:15:42.782Z,78.75
2023-02-12T09:16:41.085Z,73.13
2023-02-12T09:17:41.050Z,73.13
2023-02-12T09:18:41.034Z,73.13
2023-02-12T09:19:41.075Z,67.50
2023-02-12T09:20:41.011Z,67.50
2023-02-12T09:21:40.993Z,67.50
2023-02-12T09:22:40.976Z,67.50
2023-02-12T09:23:40.968Z,67.50
2023-02-12T09:24:40.943Z,67.50
2023-02-12T09:25:40.942Z,67.50
2023-02-12T09:26:40.915Z,73.13
2023-02-12T09:27:40.897Z,73.13
2023-02-12T09:28:40.964Z,78.75
2023-02-12T09:29:40.879Z,78.75
2023-02-12T09:30:40.912Z,84.38
2023-02-12T09:31:40.945Z,84.38
2023-02-12T09:32:40.820Z,90.00
2023-02-12T09:33:40.831Z,90.00
2023-02-12T09:34:40.798Z,95.63
2023-02-12T09:35:40.792Z,101.25
2023-02-12T09:36:40.766Z,101.25
2023-02-12T09:37:40.752Z,106.88
2023-02-12T09:38:40.844Z,106.88
2023-02-12T09:39:40.782Z,106.88
2023-02-12T09:40:40.760Z,101.25
2023-02-12T09:41:40.698Z,101.25
2023-02-12T09:42:40.875Z,101.25
2023-02-12T09:43:40.665Z,106.88
2023-02-12T09:44:40.648Z,112.50
2023-02-12T09:45:40.907Z,112.50
2023-02-12T09:46:41.640Z,112.50
2023-02-12T09:47:40.614Z,112.50
2023-02-12T09:48:41.586Z,106.88
2023-02-12T09:49:40.757Z,106.88
2023-02-12T09:50:40.561Z,112.50
2023-02-12T09:51:40.680Z,118.13
2023-02-12T09:52:41.542Z,129.38
2023-02-12T09:53:40.946Z,146.25
2023-02-12T09:54:40.514Z,151.88
2023-02-12T09:55:40.512Z,151.88
2023-02-12T09:56:40.555Z,146.25
2023-02-12T09:57:40.460Z,146.25
2023-02-12T09:58:40.446Z,146.25
2023-02-12T09:59:40.427Z,146.25
2023-02-12T10:00:40.471Z,151.88
2023-02-12T10:01:40.527Z,157.50
2023-02-12T10:02:40.396Z,157.50
2023-02-12T10:03:40.380Z,146.25
2023-02-12T10:04:48.754Z,151.88
2023-02-12T10:05:41.251Z,151.88
2023-02-12T10:06:40.336Z,157.50
2023-02-12T10:07:40.381Z,163.13
2023-02-12T10:08:40.309Z,174.38
2023-02-12T10:09:40.289Z,196.88
2023-02-12T10:10:40.284Z,191.25
2023-02-12T10:11:40.268Z,202.50
2023-02-12T10:12:40.277Z,213.75
2023-02-12T10:13:41.645Z,241.88
2023-02-12T10:14:40.241Z,196.88
2023-02-12T10:15:40.311Z,191.25
2023-02-12T10:16:40.224Z,180.00
2023-02-12T10:17:40.187Z,174.38
2023-02-12T10:18:40.185Z,151.88
2023-02-12T10:19:40.161Z,129.38
2023-02-12T10:20:41.489Z,112.50
2023-02-12T10:21:40.135Z,112.50
2023-02-12T10:22:55.832Z,118.13
2023-02-12T10:23:40.156Z,129.38
2023-02-12T10:24:40.109Z,135.00
2023-02-12T10:25:40.135Z,140.63
2023-02-12T10:26:40.056Z,146.25
2023-02-12T10:27:40.152Z,146.25
2023-02-12T10:28:41.445Z,140.63
2023-02-12T10:29:40.018Z,135.00
2023-02-12T10:30:40.037Z,140.63
2023-02-12T10:31:40.313Z,146.25
2023-02-12T10:32:39.999Z,140.63
2023-02-12T10:33:39.966Z,140.63
2023-02-12T10:34:40.174Z,140.63
2023-02-12T10:35:40.111Z,157.50
2023-02-12T10:36:39.914Z,168.75
2023-02-12T10:37:39.906Z,174.38
2023-02-12T10:38:39.936Z,185.63
2023-02-12T10:39:40.540Z,191.25
2023-02-12T10:40:40.059Z,168.75
2023-02-12T10:41:39.850Z,191.25
2023-02-12T10:42:39.865Z,174.38
2023-02-12T10:43:39.833Z,174.38
2023-02-12T10:44:39.811Z,157.50
2023-02-12T10:45:39.827Z,129.38
2023-02-12T10:46:39.808Z,106.88
2023-02-12T10:47:39.768Z,95.63
2023-02-12T10:48:39.903Z,84.38
2023-02-12T10:49:39.749Z,84.38
2023-02-12T10:50:40.032Z,84.38
2023-02-12T10:51:39.981Z,95.63
2023-02-12T10:52:39.906Z,118.13
2023-02-12T10:53:41.834Z,123.75
2023-02-12T10:54:39.735Z,118.13
2023-02-12T10:55:40.544Z,123.75
2023-02-12T10:56:40.221Z,135.00
2023-02-12T10:57:39.655Z,135.00
2023-02-12T10:58:39.830Z,140.63
2023-02-12T10:59:44.433Z,135.00
2023-02-12T11:00:39.904Z,129.38
2023-02-12T11:02:42.086Z,135.00
2023-02-12T11:03:39.641Z,146.25
2023-02-12T11:04:39.896Z,163.13
2023-02-12T11:05:39.907Z,202.50
2023-02-12T11:06:39.565Z,225.00
2023-02-12T11:07:40.431Z,236.25
2023-02-12T11:08:39.526Z,298.13
2023-02-12T11:09:39.509Z,331.88
2023-02-12T11:10:42.723Z,247.50
2023-02-12T11:11:40.686Z,208.13
2023-02-12T11:12:40.782Z,225.00
2023-02-12T11:19:34.322Z,399.38
2023-02-12T11:22:34.481Z,961.88
2023-02-12T11:25:37.267Z,438.75
2023-02-12T11:26:48.399Z,343.13
2023-02-12T11:27:33.049Z,253.13
2023-02-12T11:28:30.757Z,343.13
2023-02-12T11:29:30.296Z,776.25
2023-02-12T11:32:30.291Z,658.13
2023-02-12T11:33:30.173Z,731.25
2023-02-12T11:34:30.242Z,1102.50
2023-02-12T11:35:30.140Z,641.25
2023-02-12T11:36:30.134Z,596.25
2023-02-12T11:37:30.192Z,208.13
2023-02-12T11:38:30.144Z,258.75
2023-02-12T11:39:30.128Z,264.38
2023-02-12T11:40:30.154Z,781.88
2023-02-12T11:41:30.108Z,810.00
2023-02-12T11:42:30.467Z,1029.38
2023-02-12T11:43:30.082Z,1080.00
2023-02-12T11:44:30.081Z,1108.13
2023-02-12T11:45:30.067Z,1057.50
2023-02-12T11:46:30.120Z,517.50
2023-02-12T11:47:30.054Z,281.25
2023-02-12T11:48:30.046Z,264.38
2023-02-12T11:49:30.031Z,427.50
2023-02-12T11:50:30.019Z,742.50
2023-02-12T11:51:30.025Z,736.88
2023-02-12T11:52:30.001Z,371.25
2023-02-12T11:53:29.998Z,613.13
2023-02-12T11:54:30.822Z,399.38
2023-02-12T11:55:33.068Z,168.75
2023-02-12T11:56:30.796Z,168.75
2023-02-12T11:57:29.963Z,180.00
2023-02-12T11:58:29.967Z,573.75
2023-02-12T11:59:29.950Z,781.88
2023-02-12T12:00:29.993Z,753.75
2023-02-12T12:01:29.934Z,804.38
2023-02-12T12:02:29.928Z,703.13
2023-02-12T12:03:29.970Z,354.38
2023-02-12T12:04:29.993Z,275.63
2023-02-12T12:05:29.904Z,264.38
2023-02-12T12:06:29.900Z,551.25
2023-02-12T12:07:29.890Z,613.13
2023-02-12T12:08:29.895Z,630.00
2023-02-12T12:09:29.883Z,624.38
2023-02-12T12:10:29.875Z,585.00
2023-02-12T12:11:29.862Z,590.63
2023-02-12T12:12:29.880Z,540.00
2023-02-12T12:13:29.868Z,618.75
2023-02-12T12:14:29.850Z,590.63
2023-02-12T12:15:29.836Z,523.13
2023-02-12T12:16:29.845Z,596.25
2023-02-12T12:17:29.838Z,596.25
2023-02-12T12:18:29.824Z,241.88
2023-02-12T12:19:29.817Z,230.63
2023-02-12T12:20:29.812Z,253.13
2023-02-12T12:21:29.801Z,551.25
2023-02-12T12:22:29.795Z,219.38
2023-02-12T12:23:29.785Z,196.88
2023-02-12T12:24:29.794Z,168.75
2023-02-12T12:25:29.772Z,174.38
2023-02-12T12:26:29.773Z,163.13
2023-02-12T12:27:29.762Z,168.75
2023-02-12T12:28:29.856Z,174.38
2023-02-12T12:29:29.746Z,202.50
2023-02-12T12:30:29.769Z,270.00
2023-02-12T12:31:29.763Z,309.38
2023-02-12T12:32:29.742Z,393.75
2023-02-12T12:33:29.724Z,185.63
2023-02-12T12:34:29.715Z,180.00
2023-02-12T12:35:29.700Z,191.25
2023-02-12T12:36:29.695Z,180.00
2023-02-12T12:37:29.710Z,247.50
2023-02-12T12:38:29.682Z,286.88
2023-02-12T12:39:29.671Z,185.63
2023-02-12T12:40:29.661Z,213.75
2023-02-12T12:41:29.652Z,191.25
2023-02-12T12:42:29.691Z,416.25
2023-02-12T12:43:29.658Z,360.00
2023-02-12T12:44:29.627Z,168.75
2023-02-12T12:45:29.660Z,292.50
2023-02-12T12:46:29.612Z,376.88
2023-02-12T12:47:29.602Z,360.00
2023-02-12T12:48:29.589Z,365.63
2023-02-12T12:49:30.654Z,354.38
2023-02-12T12:50:29.580Z,326.25
2023-02-12T12:51:29.572Z,331.88
2023-02-12T12:52:29.559Z,309.38
2023-02-12T12:53:29.542Z,303.75
2023-02-12T12:54:29.532Z,303.75
2023-02-12T12:55:29.521Z,298.13
2023-02-12T12:56:29.514Z,174.38
2023-02-12T12:57:29.513Z,264.38
2023-02-12T12:58:29.505Z,264.38
2023-02-12T12:59:29.485Z,264.38
2023-02-12T13:00:29.476Z,225.00
2023-02-12T13:01:29.542Z,191.25
2023-02-12T13:02:29.624Z,140.63
2023-02-12T13:03:29.447Z,225.00
2023-02-12T13:04:29.447Z,140.63
2023-02-12T13:05:29.438Z,146.25
2023-02-12T13:06:29.423Z,157.50
2023-02-12T13:07:29.407Z,241.88
2023-02-12T13:08:29.402Z,236.25
2023-02-12T13:09:29.391Z,236.25
2023-02-12T13:10:31.753Z,230.63
2023-02-12T13:13:56.591Z,208.13
2023-02-12T13:14:56.597Z,208.13
2023-02-12T13:15:56.823Z,208.13
2023-02-12T13:16:56.756Z,202.50
2023-02-12T13:17:56.516Z,196.88
2023-02-12T13:18:56.506Z,191.25
2023-02-12T13:19:56.499Z,185.63
2023-02-12T13:20:56.488Z,180.00
2023-02-12T13:21:56.485Z,174.38
2023-02-12T13:22:56.473Z,168.75
2023-02-12T13:23:56.459Z,163.13
2023-02-12T13:24:56.451Z,163.13
2023-02-12T13:25:56.741Z,157.50
2023-02-12T13:26:56.438Z,151.88
2023-02-12T13:27:56.417Z,140.63
2023-02-12T13:28:56.409Z,123.75
2023-02-12T13:29:56.402Z,106.88
2023-02-12T13:30:56.474Z,112.50
2023-02-12T13:31:56.469Z,112.50
2023-02-12T13:32:56.366Z,135.00
2023-02-12T13:33:56.352Z,135.00
2023-02-12T13:34:56.378Z,129.38
2023-02-12T13:35:56.626Z,123.75
2023-02-12T13:36:56.316Z,123.75
2023-02-12T13:37:56.306Z,112.50
2023-02-12T13:38:56.294Z,112.50
2023-02-12T13:40:06.947Z,106.88
2023-02-12T13:41:52.529Z,106.88
2023-02-12T13:42:52.483Z,106.88
2023-02-12T13:45:42.073Z,101.25
2023-02-12T13:46:42.089Z,95.63
2023-02-12T13:48:51.208Z,95.63
2023-02-12T13:49:51.267Z,95.63
2023-02-12T13:51:49.463Z,95.63
2023-02-12T13:52:49.484Z,90.00
2023-02-12T13:53:49.388Z,90.00
2023-02-12T13:54:49.377Z,90.00
2023-02-12T13:55:49.357Z,90.00
2023-02-12T13:56:49.314Z,90.00
2023-02-12T13:57:49.374Z,84.38
2023-02-12T13:58:49.292Z,84.38
2023-02-12T13:59:49.291Z,84.38
2023-02-12T14:00:49.315Z,84.38
2023-02-12T14:01:49.442Z,84.38
2023-02-12T14:02:49.331Z,84.38
2023-02-12T14:03:49.242Z,78.75
2023-02-12T14:04:49.220Z,78.75
2023-02-12T14:05:49.206Z,78.75
2023-02-12T14:06:49.202Z,78.75
2023-02-12T14:07:49.199Z,73.13
2023-02-12T14:08:49.177Z,73.13
2023-02-12T14:09:49.163Z,73.13
2023-02-12T14:10:49.152Z,73.13
2023-02-12T14:11:49.137Z,73.13
2023-02-12T14:12:49.127Z,73.13
2023-02-12T14:13:49.113Z,67.50
2023-02-12T14:14:49.094Z,67.50